sensor_id;sensor_type;location;lat;lon;timestamp;P1;durP1;ratioP1;P2;durP2;ratioP2
75548;SDS011;64133;56.002;37.208;2023-04-09T00:01:06;21.33;;;9.90;;
75548;SDS011;64133;56.002;37.208;2023-04-09T00:06:10;18.12;;;7.87;;
75548;SDS011;64133;56.002;37.208;2023-04-09T00:11:15;18.85;;;9.50;;
75548;SDS011;64133;56.002;37.208;2023-04-09T00:16:19;20.60;;;9.95;;
75548;SDS011;64133;56.002;37.208;2023-04-09T00:21:24;33.02;;;9.95;;
75548;SDS011;64133;56.002;37.208;2023-04-09T00:26:31;25.92;;;10.43;;
75548;SDS011;64133;56.002;37.208;2023-04-09T00:31:36;24.15;;;10.48;;
75548;SDS011;64133;56.002;37.208;2023-04-09T00:36:41;19.87;;;9.68;;
75548;SDS011;64133;56.002;37.208;2023-04-09T00:41:55;19.48;;;11.05;;
75548;SDS011;64133;56.002;37.208;2023-04-09T00:47:03;22.42;;;10.60;;
75548;SDS011;64133;56.002;37.208;2023-04-09T00:52:10;21.95;;;11.57;;
75548;SDS011;64133;56.002;37.208;2023-04-09T00:57:15;26.70;;;11.43;;
75548;SDS011;64133;56.002;37.208;2023-04-09T01:02:20;25.43;;;13.68;;
75548;SDS011;64133;56.002;37.208;2023-04-09T01:07:30;18.30;;;10.18;;
75548;SDS011;64133;56.002;37.208;2023-04-09T01:12:31;21.50;;;12.10;;
75548;SDS011;64133;56.002;37.208;2023-04-09T01:17:37;22.35;;;10.90;;
75548;SDS011;64133;56.002;37.208;2023-04-09T01:22:44;22.98;;;11.70;;
75548;SDS011;64133;56.002;37.208;2023-04-09T01:27:53;20.08;;;11.45;;
75548;SDS011;64133;56.002;37.208;2023-04-09T01:32:58;22.35;;;10.45;;
75548;SDS011;64133;56.002;37.208;2023-04-09T01:38:02;17.10;;;10.03;;
75548;SDS011;64133;56.002;37.208;2023-04-09T01:43:07;18.02;;;9.50;;
75548;SDS011;64133;56.002;37.208;2023-04-09T01:48:12;18.73;;;9.70;;
75548;SDS011;64133;56.002;37.208;2023-04-09T01:53:16;20.05;;;9.55;;
75548;SDS011;64133;56.002;37.208;2023-04-09T01:58:21;22.27;;;11.18;;
75548;SDS011;64133;56.002;37.208;2023-04-09T02:03:27;21.95;;;10.72;;
75548;SDS011;64133;56.002;37.208;2023-04-09T02:08:30;20.05;;;11.38;;
75548;SDS011;64133;56.002;37.208;2023-04-09T02:13:35;19.70;;;9.60;;
75548;SDS011;64133;56.002;37.208;2023-04-09T02:18:40;17.48;;;9.30;;
75548;SDS011;64133;56.002;37.208;2023-04-09T02:23:45;17.32;;;9.88;;
75548;SDS011;64133;56.002;37.208;2023-04-09T02:28:49;16.05;;;8.68;;
75548;SDS011;64133;56.002;37.208;2023-04-09T02:33:54;18.23;;;9.58;;
75548;SDS011;64133;56.002;37.208;2023-04-09T02:38:58;22.60;;;11.43;;
75548;SDS011;64133;56.002;37.208;2023-04-09T02:44:03;19.80;;;9.35;;
75548;SDS011;64133;56.002;37.208;2023-04-09T02:49:08;22.65;;;10.43;;
75548;SDS011;64133;56.002;37.208;2023-04-09T02:54:13;23.18;;;11.90;;
75548;SDS011;64133;56.002;37.208;2023-04-09T02:59:17;19.50;;;10.43;;
75548;SDS011;64133;56.002;37.208;2023-04-09T03:04:22;22.90;;;10.90;;
75548;SDS011;64133;56.002;37.208;2023-04-09T03:09:26;16.80;;;10.18;;
75548;SDS011;64133;56.002;37.208;2023-04-09T03:14:32;28.90;;;11.00;;
75548;SDS011;64133;56.002;37.208;2023-04-09T03:19:36;18.42;;;8.95;;
75548;SDS011;64133;56.002;37.208;2023-04-09T03:24:41;12.35;;;7.35;;
75548;SDS011;64133;56.002;37.208;2023-04-09T03:29:46;22.50;;;9.95;;
75548;SDS011;64133;56.002;37.208;2023-04-09T03:34:50;20.40;;;11.33;;
75548;SDS011;64133;56.002;37.208;2023-04-09T03:39:55;17.37;;;9.38;;
75548;SDS011;64133;56.002;37.208;2023-04-09T03:44:59;18.85;;;10.65;;
75548;SDS011;64133;56.002;37.208;2023-04-09T03:50:06;30.00;;;11.75;;
75548;SDS011;64133;56.002;37.208;2023-04-09T03:55:11;26.50;;;12.68;;
75548;SDS011;64133;56.002;37.208;2023-04-09T04:00:16;23.92;;;11.48;;
75548;SDS011;64133;56.002;37.208;2023-04-09T04:05:22;29.90;;;13.55;;
75548;SDS011;64133;56.002;37.208;2023-04-09T04:10:27;22.80;;;10.88;;
75548;SDS011;64133;56.002;37.208;2023-04-09T04:15:32;21.23;;;10.75;;
75548;SDS011;64133;56.002;37.208;2023-04-09T04:20:37;18.65;;;10.90;;
75548;SDS011;64133;56.002;37.208;2023-04-09T04:25:41;27.55;;;12.13;;
75548;SDS011;64133;56.002;37.208;2023-04-09T04:30:46;18.35;;;11.15;;
75548;SDS011;64133;56.002;37.208;2023-04-09T04:35:51;17.00;;;10.90;;
75548;SDS011;64133;56.002;37.208;2023-04-09T04:40:55;19.87;;;10.65;;
75548;SDS011;64133;56.002;37.208;2023-04-09T04:46:00;20.45;;;10.55;;
75548;SDS011;64133;56.002;37.208;2023-04-09T04:51:05;20.60;;;10.65;;
75548;SDS011;64133;56.002;37.208;2023-04-09T04:56:12;15.65;;;9.80;;
75548;SDS011;64133;56.002;37.208;2023-04-09T05:01:17;14.73;;;10.58;;
75548;SDS011;64133;56.002;37.208;2023-04-09T05:06:21;17.37;;;10.82;;
75548;SDS011;64133;56.002;37.208;2023-04-09T05:11:26;17.35;;;10.38;;
75548;SDS011;64133;56.002;37.208;2023-04-09T05:16:31;14.47;;;10.85;;
75548;SDS011;64133;56.002;37.208;2023-04-09T05:21:35;16.05;;;11.30;;
75548;SDS011;64133;56.002;37.208;2023-04-09T05:26:40;13.25;;;10.58;;
75548;SDS011;64133;56.002;37.208;2023-04-09T05:31:45;17.25;;;11.65;;
75548;SDS011;64133;56.002;37.208;2023-04-09T05:36:49;16.02;;;10.88;;
75548;SDS011;64133;56.002;37.208;2023-04-09T05:41:54;19.27;;;11.18;;
75548;SDS011;64133;56.002;37.208;2023-04-09T05:46:59;17.17;;;10.70;;
75548;SDS011;64133;56.002;37.208;2023-04-09T05:52:03;17.75;;;12.07;;
75548;SDS011;64133;56.002;37.208;2023-04-09T05:57:08;15.53;;;11.60;;
75548;SDS011;64133;56.002;37.208;2023-04-09T06:02:13;15.05;;;11.00;;
75548;SDS011;64133;56.002;37.208;2023-04-09T06:07:18;18.52;;;11.60;;
75548;SDS011;64133;56.002;37.208;2023-04-09T06:12:23;15.23;;;11.55;;
75548;SDS011;64133;56.002;37.208;2023-04-09T06:17:28;17.57;;;11.68;;
75548;SDS011;64133;56.002;37.208;2023-04-09T06:22:33;19.50;;;12.93;;
75548;SDS011;64133;56.002;37.208;2023-04-09T06:27:37;18.75;;;12.70;;
75548;SDS011;64133;56.002;37.208;2023-04-09T06:32:42;16.75;;;12.00;;
75548;SDS011;64133;56.002;37.208;2023-04-09T06:37:47;15.25;;;11.93;;
75548;SDS011;64133;56.002;37.208;2023-04-09T06:42:52;18.12;;;11.95;;
75548;SDS011;64133;56.002;37.208;2023-04-09T06:47:56;12.45;;;10.63;;
75548;SDS011;64133;56.002;37.208;2023-04-09T06:53:01;16.87;;;11.35;;
75548;SDS011;64133;56.002;37.208;2023-04-09T06:58:06;20.05;;;12.47;;
75548;SDS011;64133;56.002;37.208;2023-04-09T07:03:11;16.97;;;12.63;;
75548;SDS011;64133;56.002;37.208;2023-04-09T07:08:15;16.77;;;12.82;;
75548;SDS011;64133;56.002;37.208;2023-04-09T07:13:20;13.38;;;11.60;;
75548;SDS011;64133;56.002;37.208;2023-04-09T07:18:25;22.70;;;12.75;;
75548;SDS011;64133;56.002;37.208;2023-04-09T07:23:30;23.67;;;11.95;;
75548;SDS011;64133;56.002;37.208;2023-04-09T07:28:37;16.45;;;11.65;;
75548;SDS011;64133;56.002;37.208;2023-04-09T07:33:42;16.90;;;11.83;;
75548;SDS011;64133;56.002;37.208;2023-04-09T07:38:47;13.13;;;11.30;;
75548;SDS011;64133;56.002;37.208;2023-04-09T07:43:52;14.68;;;11.33;;
75548;SDS011;64133;56.002;37.208;2023-04-09T07:48:56;14.45;;;11.75;;
75548;SDS011;64133;56.002;37.208;2023-04-09T07:54:01;14.40;;;11.85;;
75548;SDS011;64133;56.002;37.208;2023-04-09T07:59:06;15.63;;;10.58;;
75548;SDS011;64133;56.002;37.208;2023-04-09T08:04:11;13.58;;;10.75;;
75548;SDS011;64133;56.002;37.208;2023-04-09T08:09:15;21.95;;;12.20;;
75548;SDS011;64133;56.002;37.208;2023-04-09T08:14:20;16.70;;;9.95;;
75548;SDS011;64133;56.002;37.208;2023-04-09T08:19:25;15.28;;;10.65;;
75548;SDS011;64133;56.002;37.208;2023-04-09T08:24:29;14.70;;;10.00;;
75548;SDS011;64133;56.002;37.208;2023-04-09T08:29:34;13.38;;;10.60;;
75548;SDS011;64133;56.002;37.208;2023-04-09T08:34:39;13.80;;;10.25;;
75548;SDS011;64133;56.002;37.208;2023-04-09T08:39:43;13.45;;;9.08;;
75548;SDS011;64133;56.002;37.208;2023-04-09T08:44:48;15.55;;;10.13;;
75548;SDS011;64133;56.002;37.208;2023-04-09T08:49:53;13.70;;;9.10;;
75548;SDS011;64133;56.002;37.208;2023-04-09T08:54:57;16.75;;;8.68;;
75548;SDS011;64133;56.002;37.208;2023-04-09T09:00:02;12.78;;;8.80;;
75548;SDS011;64133;56.002;37.208;2023-04-09T09:05:08;13.25;;;9.23;;
75548;SDS011;64133;56.002;37.208;2023-04-09T09:10:13;13.78;;;7.80;;
75548;SDS011;64133;56.002;37.208;2023-04-09T09:15:27;11.38;;;7.58;;
75548;SDS011;64133;56.002;37.208;2023-04-09T09:25:37;14.98;;;6.87;;
75548;SDS011;64133;56.002;37.208;2023-04-09T09:30:42;14.53;;;7.58;;
75548;SDS011;64133;56.002;37.208;2023-04-09T09:35:47;12.47;;;6.92;;
75548;SDS011;64133;56.002;37.208;2023-04-09T09:40:52;13.93;;;8.13;;
75548;SDS011;64133;56.002;37.208;2023-04-09T09:45:56;10.03;;;7.78;;
75548;SDS011;64133;56.002;37.208;2023-04-09T09:51:01;12.25;;;7.08;;
75548;SDS011;64133;56.002;37.208;2023-04-09T09:56:08;10.45;;;7.85;;
75548;SDS011;64133;56.002;37.208;2023-04-09T10:01:12;11.60;;;6.75;;
75548;SDS011;64133;56.002;37.208;2023-04-09T10:06:16;17.42;;;8.55;;
75548;SDS011;64133;56.002;37.208;2023-04-09T10:11:21;12.70;;;7.40;;
75548;SDS011;64133;56.002;37.208;2023-04-09T10:16:26;11.12;;;6.78;;
75548;SDS011;64133;56.002;37.208;2023-04-09T10:21:35;12.25;;;7.78;;
75548;SDS011;64133;56.002;37.208;2023-04-09T10:26:40;14.00;;;7.15;;
75548;SDS011;64133;56.002;37.208;2023-04-09T10:31:49;12.82;;;7.20;;
75548;SDS011;64133;56.002;37.208;2023-04-09T10:36:55;13.90;;;7.33;;
75548;SDS011;64133;56.002;37.208;2023-04-09T10:42:00;10.68;;;7.30;;
75548;SDS011;64133;56.002;37.208;2023-04-09T10:47:04;9.83;;;6.20;;
75548;SDS011;64133;56.002;37.208;2023-04-09T10:52:10;10.50;;;6.35;;
75548;SDS011;64133;56.002;37.208;2023-04-09T10:57:15;13.30;;;6.65;;
75548;SDS011;64133;56.002;37.208;2023-04-09T11:08:10;13.60;;;6.70;;
75548;SDS011;64133;56.002;37.208;2023-04-09T11:13:14;10.00;;;6.72;;
75548;SDS011;64133;56.002;37.208;2023-04-09T11:18:22;13.93;;;6.12;;
75548;SDS011;64133;56.002;37.208;2023-04-09T11:23:26;16.97;;;7.75;;
75548;SDS011;64133;56.002;37.208;2023-04-09T11:28:33;14.80;;;7.08;;
75548;SDS011;64133;56.002;37.208;2023-04-09T11:33:35;19.90;;;7.45;;
75548;SDS011;64133;56.002;37.208;2023-04-09T11:38:40;17.73;;;6.83;;
75548;SDS011;64133;56.002;37.208;2023-04-09T11:43:45;14.33;;;7.10;;
75548;SDS011;64133;56.002;37.208;2023-04-09T11:48:49;11.38;;;6.58;;
75548;SDS011;64133;56.002;37.208;2023-04-09T11:53:54;11.90;;;6.58;;
75548;SDS011;64133;56.002;37.208;2023-04-09T11:58:59;10.50;;;6.47;;
75548;SDS011;64133;56.002;37.208;2023-04-09T12:04:03;12.33;;;6.87;;
75548;SDS011;64133;56.002;37.208;2023-04-09T12:09:08;10.68;;;5.92;;
75548;SDS011;64133;56.002;37.208;2023-04-09T12:14:13;13.00;;;7.22;;
75548;SDS011;64133;56.002;37.208;2023-04-09T12:19:19;12.45;;;6.30;;
75548;SDS011;64133;56.002;37.208;2023-04-09T12:24:23;11.65;;;6.65;;
75548;SDS011;64133;56.002;37.208;2023-04-09T12:29:27;10.50;;;6.90;;
75548;SDS011;64133;56.002;37.208;2023-04-09T12:34:32;10.85;;;6.20;;
75548;SDS011;64133;56.002;37.208;2023-04-09T12:39:36;14.73;;;6.55;;
75548;SDS011;64133;56.002;37.208;2023-04-09T12:44:41;10.72;;;6.42;;
75548;SDS011;64133;56.002;37.208;2023-04-09T12:49:46;10.25;;;5.97;;
75548;SDS011;64133;56.002;37.208;2023-04-09T12:54:51;9.85;;;5.53;;
75548;SDS011;64133;56.002;37.208;2023-04-09T13:00:02;12.37;;;6.03;;
75548;SDS011;64133;56.002;37.208;2023-04-09T13:05:09;12.55;;;6.47;;
75548;SDS011;64133;56.002;37.208;2023-04-09T13:10:14;13.95;;;7.37;;
75548;SDS011;64133;56.002;37.208;2023-04-09T13:15:19;12.43;;;7.40;;
75548;SDS011;64133;56.002;37.208;2023-04-09T13:20:24;16.85;;;6.33;;
75548;SDS011;64133;56.002;37.208;2023-04-09T13:25:40;16.57;;;9.08;;
75548;SDS011;64133;56.002;37.208;2023-04-09T13:30:45;16.52;;;6.90;;
75548;SDS011;64133;56.002;37.208;2023-04-09T13:35:50;10.32;;;6.53;;
75548;SDS011;64133;56.002;37.208;2023-04-09T13:40:55;11.93;;;7.30;;
75548;SDS011;64133;56.002;37.208;2023-04-09T13:46:18;11.00;;;6.75;;
75548;SDS011;64133;56.002;37.208;2023-04-09T13:51:41;13.65;;;7.80;;
75548;SDS011;64133;56.002;37.208;2023-04-09T13:57:04;12.33;;;6.67;;
75548;SDS011;64133;56.002;37.208;2023-04-09T14:02:24;9.58;;;6.28;;
75548;SDS011;64133;56.002;37.208;2023-04-09T14:07:28;7.80;;;5.78;;
75548;SDS011;64133;56.002;37.208;2023-04-09T14:12:33;14.50;;;9.18;;
75548;SDS011;64133;56.002;37.208;2023-04-09T14:17:38;10.35;;;6.58;;
75548;SDS011;64133;56.002;37.208;2023-04-09T14:22:42;10.80;;;7.05;;
75548;SDS011;64133;56.002;37.208;2023-04-09T14:27:47;12.00;;;6.87;;
75548;SDS011;64133;56.002;37.208;2023-04-09T14:32:52;8.90;;;6.55;;
75548;SDS011;64133;56.002;37.208;2023-04-09T14:37:56;13.88;;;6.25;;
75548;SDS011;64133;56.002;37.208;2023-04-09T14:43:01;13.58;;;6.00;;
75548;SDS011;64133;56.002;37.208;2023-04-09T14:48:06;11.40;;;6.47;;
75548;SDS011;64133;56.002;37.208;2023-04-09T14:53:10;14.90;;;7.40;;
75548;SDS011;64133;56.002;37.208;2023-04-09T14:58:15;13.72;;;7.03;;
75548;SDS011;64133;56.002;37.208;2023-04-09T15:03:20;13.03;;;6.92;;
75548;SDS011;64133;56.002;37.208;2023-04-09T15:08:24;9.48;;;5.97;;
75548;SDS011;64133;56.002;37.208;2023-04-09T15:13:29;14.30;;;6.78;;
75548;SDS011;64133;56.002;37.208;2023-04-09T15:18:34;17.25;;;6.92;;
75548;SDS011;64133;56.002;37.208;2023-04-09T15:23:38;22.82;;;7.40;;
75548;SDS011;64133;56.002;37.208;2023-04-09T15:28:43;13.40;;;7.45;;
75548;SDS011;64133;56.002;37.208;2023-04-09T15:33:48;11.28;;;6.80;;
75548;SDS011;64133;56.002;37.208;2023-04-09T15:38:52;13.20;;;7.05;;
75548;SDS011;64133;56.002;37.208;2023-04-09T15:43:57;15.93;;;7.22;;
75548;SDS011;64133;56.002;37.208;2023-04-09T15:49:02;27.32;;;8.48;;
75548;SDS011;64133;56.002;37.208;2023-04-09T15:54:07;26.10;;;7.80;;
75548;SDS011;64133;56.002;37.208;2023-04-09T15:59:11;31.75;;;7.90;;
75548;SDS011;64133;56.002;37.208;2023-04-09T16:04:16;19.37;;;8.55;;
75548;SDS011;64133;56.002;37.208;2023-04-09T16:09:21;17.10;;;7.60;;
75548;SDS011;64133;56.002;37.208;2023-04-09T16:14:25;26.02;;;8.85;;
75548;SDS011;64133;56.002;37.208;2023-04-09T16:19:30;52.58;;;9.93;;
75548;SDS011;64133;56.002;37.208;2023-04-09T16:24:35;24.35;;;8.45;;
75548;SDS011;64133;56.002;37.208;2023-04-09T16:29:42;31.52;;;8.73;;
75548;SDS011;64133;56.002;37.208;2023-04-09T16:34:47;30.92;;;9.58;;
75548;SDS011;64133;56.002;37.208;2023-04-09T16:39:51;35.70;;;12.30;;
75548;SDS011;64133;56.002;37.208;2023-04-09T16:44:56;39.38;;;10.82;;
75548;SDS011;64133;56.002;37.208;2023-04-09T16:50:00;40.35;;;10.85;;
75548;SDS011;64133;56.002;37.208;2023-04-09T16:55:06;26.70;;;8.80;;
75548;SDS011;64133;56.002;37.208;2023-04-09T17:00:13;24.92;;;9.08;;
75548;SDS011;64133;56.002;37.208;2023-04-09T17:05:19;44.55;;;12.03;;
75548;SDS011;64133;56.002;37.208;2023-04-09T17:10:23;31.12;;;11.90;;
75548;SDS011;64133;56.002;37.208;2023-04-09T17:15:29;37.20;;;12.35;;
75548;SDS011;64133;56.002;37.208;2023-04-09T17:20:33;34.05;;;11.75;;
75548;SDS011;64133;56.002;37.208;2023-04-09T17:25:38;24.25;;;8.75;;
75548;SDS011;64133;56.002;37.208;2023-04-09T17:30:43;25.20;;;10.00;;
75548;SDS011;64133;56.002;37.208;2023-04-09T17:35:47;34.78;;;11.60;;
75548;SDS011;64133;56.002;37.208;2023-04-09T17:40:53;37.58;;;13.65;;
75548;SDS011;64133;56.002;37.208;2023-04-09T17:45:58;40.75;;;11.18;;
75548;SDS011;64133;56.002;37.208;2023-04-09T17:51:03;35.65;;;12.40;;
75548;SDS011;64133;56.002;37.208;2023-04-09T17:56:12;37.48;;;12.25;;
75548;SDS011;64133;56.002;37.208;2023-04-09T18:01:20;41.25;;;13.25;;
75548;SDS011;64133;56.002;37.208;2023-04-09T18:06:24;58.50;;;14.75;;
75548;SDS011;64133;56.002;37.208;2023-04-09T18:11:29;45.12;;;13.85;;
75548;SDS011;64133;56.002;37.208;2023-04-09T18:16:34;37.38;;;15.45;;
75548;SDS011;64133;56.002;37.208;2023-04-09T18:21:39;42.78;;;15.50;;
75548;SDS011;64133;56.002;37.208;2023-04-09T18:26:43;40.17;;;15.28;;
75548;SDS011;64133;56.002;37.208;2023-04-09T18:31:48;43.13;;;16.23;;
75548;SDS011;64133;56.002;37.208;2023-04-09T18:36:53;39.13;;;11.20;;
75548;SDS011;64133;56.002;37.208;2023-04-09T18:41:58;37.80;;;11.83;;
75548;SDS011;64133;56.002;37.208;2023-04-09T18:47:03;31.75;;;10.50;;
75548;SDS011;64133;56.002;37.208;2023-04-09T18:52:09;31.95;;;10.58;;
75548;SDS011;64133;56.002;37.208;2023-04-09T18:57:13;20.90;;;10.82;;
75548;SDS011;64133;56.002;37.208;2023-04-09T19:02:18;28.35;;;12.40;;
75548;SDS011;64133;56.002;37.208;2023-04-09T19:07:23;30.95;;;11.88;;
75548;SDS011;64133;56.002;37.208;2023-04-09T19:12:27;22.98;;;11.53;;
75548;SDS011;64133;56.002;37.208;2023-04-09T19:17:32;25.75;;;11.43;;
75548;SDS011;64133;56.002;37.208;2023-04-09T19:22:37;25.60;;;11.50;;
75548;SDS011;64133;56.002;37.208;2023-04-09T19:27:41;35.10;;;10.58;;
75548;SDS011;64133;56.002;37.208;2023-04-09T19:32:46;21.45;;;10.80;;
75548;SDS011;64133;56.002;37.208;2023-04-09T19:37:53;32.83;;;12.93;;
75548;SDS011;64133;56.002;37.208;2023-04-09T19:42:58;32.15;;;13.55;;
75548;SDS011;64133;56.002;37.208;2023-04-09T19:48:02;31.57;;;13.93;;
75548;SDS011;64133;56.002;37.208;2023-04-09T19:53:07;26.23;;;12.03;;
75548;SDS011;64133;56.002;37.208;2023-04-09T19:58:12;30.05;;;12.15;;
75548;SDS011;64133;56.002;37.208;2023-04-09T20:03:17;32.13;;;14.70;;
75548;SDS011;64133;56.002;37.208;2023-04-09T20:08:22;28.10;;;14.63;;
75548;SDS011;64133;56.002;37.208;2023-04-09T20:13:26;24.55;;;13.65;;
75548;SDS011;64133;56.002;37.208;2023-04-09T20:18:31;22.73;;;11.80;;
75548;SDS011;64133;56.002;37.208;2023-04-09T20:23:36;26.77;;;11.28;;
75548;SDS011;64133;56.002;37.208;2023-04-09T20:28:40;21.40;;;11.43;;
75548;SDS011;64133;56.002;37.208;2023-04-09T20:33:45;22.50;;;12.47;;
75548;SDS011;64133;56.002;37.208;2023-04-09T20:38:50;29.60;;;13.03;;
75548;SDS011;64133;56.002;37.208;2023-04-09T20:43:54;22.90;;;12.47;;
75548;SDS011;64133;56.002;37.208;2023-04-09T20:48:59;35.40;;;14.40;;
75548;SDS011;64133;56.002;37.208;2023-04-09T20:54:04;30.02;;;13.43;;
75548;SDS011;64133;56.002;37.208;2023-04-09T20:59:09;27.42;;;12.85;;
75548;SDS011;64133;56.002;37.208;2023-04-09T21:04:13;29.50;;;12.65;;
75548;SDS011;64133;56.002;37.208;2023-04-09T21:09:18;19.95;;;11.45;;
75548;SDS011;64133;56.002;37.208;2023-04-09T21:14:23;24.70;;;11.00;;
75548;SDS011;64133;56.002;37.208;2023-04-09T21:19:27;24.47;;;13.13;;
75548;SDS011;64133;56.002;37.208;2023-04-09T21:24:32;25.27;;;11.63;;
75548;SDS011;64133;56.002;37.208;2023-04-09T21:29:37;24.27;;;12.98;;
75548;SDS011;64133;56.002;37.208;2023-04-09T21:34:42;27.35;;;12.25;;
75548;SDS011;64133;56.002;37.208;2023-04-09T21:39:46;22.10;;;10.95;;
75548;SDS011;64133;56.002;37.208;2023-04-09T21:44:51;31.17;;;11.28;;
75548;SDS011;64133;56.002;37.208;2023-04-09T21:49:56;23.20;;;11.10;;
75548;SDS011;64133;56.002;37.208;2023-04-09T21:55:00;20.02;;;11.18;;
75548;SDS011;64133;56.002;37.208;2023-04-09T22:00:06;33.58;;;13.13;;
75548;SDS011;64133;56.002;37.208;2023-04-09T22:05:12;33.75;;;15.00;;
75548;SDS011;64133;56.002;37.208;2023-04-09T22:10:17;28.38;;;14.93;;
75548;SDS011;64133;56.002;37.208;2023-04-09T22:15:22;31.17;;;14.60;;
75548;SDS011;64133;56.002;37.208;2023-04-09T22:20:26;22.65;;;12.07;;
75548;SDS011;64133;56.002;37.208;2023-04-09T22:25:31;26.15;;;12.20;;
75548;SDS011;64133;56.002;37.208;2023-04-09T22:30:36;18.37;;;12.35;;
75548;SDS011;64133;56.002;37.208;2023-04-09T22:35:40;22.07;;;12.70;;
75548;SDS011;64133;56.002;37.208;2023-04-09T22:40:46;24.98;;;11.40;;
75548;SDS011;64133;56.002;37.208;2023-04-09T22:45:50;27.80;;;14.23;;
75548;SDS011;64133;56.002;37.208;2023-04-09T22:50:55;28.52;;;14.95;;
75548;SDS011;64133;56.002;37.208;2023-04-09T22:56:00;25.62;;;13.90;;
75548;SDS011;64133;56.002;37.208;2023-04-09T23:01:06;21.20;;;12.25;;
75548;SDS011;64133;56.002;37.208;2023-04-09T23:06:11;26.30;;;12.95;;
75548;SDS011;64133;56.002;37.208;2023-04-09T23:11:15;27.05;;;12.00;;
75548;SDS011;64133;56.002;37.208;2023-04-09T23:16:20;19.80;;;11.83;;
75548;SDS011;64133;56.002;37.208;2023-04-09T23:21:24;21.80;;;12.75;;
75548;SDS011;64133;56.002;37.208;2023-04-09T23:26:29;23.75;;;12.88;;
75548;SDS011;64133;56.002;37.208;2023-04-09T23:31:34;19.52;;;9.93;;
75548;SDS011;64133;56.002;37.208;2023-04-09T23:36:38;24.80;;;11.45;;
75548;SDS011;64133;56.002;37.208;2023-04-09T23:41:43;18.37;;;11.55;;
75548;SDS011;64133;56.002;37.208;2023-04-09T23:46:48;18.95;;;12.20;;
75548;SDS011;64133;56.002;37.208;2023-04-09T23:51:52;23.42;;;11.93;;
75548;SDS011;64133;56.002;37.208;2023-04-09T23:56:57;20.95;;;12.65;;
